Tropical Cyclones
[Index]
Main Index Home Page Stock Weather Photos Extreme Storms Discussion Storm News and Storm Chasing Reports Tropical Cyclones / Hurricanes / Typhoons Weather Data and Links Wild Fires / Bushfires Weather Observation Techniques Weather Picture Catalogue Tornado Pictures and Reports Stock Video Footage and DVDs for sale
Season 2007-2008 Tropical Cyclone ROSIE Track Map
Season 2007-2008 Summaries: [BoM-AU] [JTWC-AU] [JTWC-SIO] [JTWC-SPAC] [JTWC-SH]
<<- Previous TC | BoM 2007-2008 Season | Next TC ->>

click for intensity scale information  Lat/long Grid: Show Hide

 Date Labels: Show Hide

Bureau of Meteorology Tropical Cyclone Data

Name: ROSIE
Number: 917 / 200708_22

20 Apr 2008 00:00 UTC to 24 Apr 2008 06:00 UTC

    date/time    lat    long    hPa   cat  kts
2008-04-20 00    8.2    96.5                25          
2008-04-20 06    8.4    96.9                            
2008-04-20 12    8.5    97.7   1000         25          
2008-04-20 18    8.5    99.0   1000         25          
2008-04-21 00    8.7   100.3    998         30          
2008-04-21 06    8.8   101.6    998         30          
2008-04-21 12    9.2   102.8    997         35          
2008-04-21 15    9.7   103.2    994    1    40          
2008-04-21 18   10.0   103.9    992    1    45          
2008-04-22 00   10.6   104.8    988    1    50          
2008-04-22 06   10.6   105.1    988    1    50          
2008-04-22 12   10.5   105.6    993    1    40          
2008-04-22 18   10.7   106.1    993    1    40          
2008-04-23 00   11.1   106.4    995    1    35          
2008-04-23 06   11.6   106.6    996         35          
2008-04-23 12   12.4   106.7    996         35          
2008-04-23 18   13.0   106.4    998         30          
2008-04-24 00   13.7   105.9    999         30          
2008-04-24 06   14.9   105.8   1000         25          
Winds are 10-min average.

Tropical cyclone tracks developed by Michael Bath using data from the Bureau of Meteorology and Google Maps.


[Australian Severe Weather index] [Copyright Notice] [Email Contacts] [Search This Site] [Privacy Policy]
Document: tropical_cyclone_rosie.htm Updated: 29 June 2017